Rouleau, Canada
Current Conditions -  °F | °C
As of 1:00 PM on Thursday 27 Nov 2014 (Local Time) from CYQR Reporting Station
Light Snow Light Snow  
Wind Chill: -7°   Ceiling: 1500
Heat Index: 10°   Visibility: 0.75mi
Dew Point:   Wind: 16mph
Humidity: 92%   Direction: 110°ESE
Pressure: 30"   Gusts: NA
Location:  50.18°N, 104.9°W
Report Text: CYQR 271900Z 11014KT 3/4SM R13/6000FT/D -SN DRSN OVC015 M12/M13 A3000 RMK SN2SC6 SLP206
Loading
Personal Weather Stations






























Interactive Weather Map New forecast layout! Learn more

10-Day Weather Forecast

Advertisements
Track Severe Weather on mobile